Terminal Aerodrome Forecast
Issued by NWS Cleveland, OH

Home | Current Version | Previous Version | Graphics & Text | Print | Product List | Glossary Off
Versions: 1 2 3 4 5 6 7 8 9 10 11 12 13 14 15 16 17 18

527
FTUS41 KCLE 251505 AAA
TAFTOL
TAF AMD
KTOL 251505Z 2515/2612 07010KT P6SM VCSH SCT008 OVC050
      TEMPO 2516/2520 5SM BR BKN008
     FM252000 07010KT 3SM HZ VCSH BKN008 OVC035
      TEMPO 2521/2601 1SM BR OVC006
     FM260100 06006KT 2SM -DZ BR OVC006=

USA.gov is the U.S. government's official web portal to all federal, state and local government web resources and services.